sensor_id;sensor_type;location;lat;lon;timestamp;temperature;humidity
30572;DHT22;17348;50.948;10.696;2022-10-16T00:00:26;15.80;99.90
30572;DHT22;17348;50.948;10.696;2022-10-16T00:03:28;15.80;99.90
30572;DHT22;17348;50.948;10.696;2022-10-16T00:06:31;15.80;99.90
30572;DHT22;17348;50.948;10.696;2022-10-16T00:09:35;15.80;99.90
30572;DHT22;17348;50.948;10.696;2022-10-16T00:12:37;15.70;99.90
30572;DHT22;17348;50.948;10.696;2022-10-16T00:15:39;15.70;99.90
30572;DHT22;17348;50.948;10.696;2022-10-16T00:18:44;15.70;99.90
30572;DHT22;17348;50.948;10.696;2022-10-16T00:21:46;15.60;99.90
30572;DHT22;17348;50.948;10.696;2022-10-16T00:24:49;15.60;99.90
30572;DHT22;17348;50.948;10.696;2022-10-16T00:27:52;15.60;99.90
30572;DHT22;17348;50.948;10.696;2022-10-16T00:30:54;15.60;99.90
30572;DHT22;17348;50.948;10.696;2022-10-16T00:33:57;15.60;99.90
30572;DHT22;17348;50.948;10.696;2022-10-16T00:36:59;15.60;99.90
30572;DHT22;17348;50.948;10.696;2022-10-16T00:40:03;15.60;99.90
30572;DHT22;17348;50.948;10.696;2022-10-16T00:43:12;15.60;99.90
30572;DHT22;17348;50.948;10.696;2022-10-16T00:46:17;15.60;99.90
30572;DHT22;17348;50.948;10.696;2022-10-16T00:49:20;15.60;99.90
30572;DHT22;17348;50.948;10.696;2022-10-16T00:52:23;15.60;99.90
30572;DHT22;17348;50.948;10.696;2022-10-16T00:55:26;15.60;99.90
30572;DHT22;17348;50.948;10.696;2022-10-16T00:58:31;15.60;99.90
30572;DHT22;17348;50.948;10.696;2022-10-16T01:01:33;15.60;99.90
30572;DHT22;17348;50.948;10.696;2022-10-16T01:04:37;15.60;99.90
30572;DHT22;17348;50.948;10.696;2022-10-16T01:07:47;15.60;99.90
30572;DHT22;17348;50.948;10.696;2022-10-16T01:10:57;15.60;99.90
30572;DHT22;17348;50.948;10.696;2022-10-16T01:14:06;15.60;99.90
30572;DHT22;17348;50.948;10.696;2022-10-16T01:17:15;15.60;99.90
30572;DHT22;17348;50.948;10.696;2022-10-16T01:20:25;15.50;99.90
30572;DHT22;17348;50.948;10.696;2022-10-16T01:23:36;15.50;99.90
30572;DHT22;17348;50.948;10.696;2022-10-16T01:27:04;15.40;99.90
30572;DHT22;17348;50.948;10.696;2022-10-16T01:30:10;15.40;99.90
30572;DHT22;17348;50.948;10.696;2022-10-16T01:33:18;15.40;99.90
30572;DHT22;17348;50.948;10.696;2022-10-16T01:36:25;15.50;99.90
30572;DHT22;17348;50.948;10.696;2022-10-16T01:39:32;15.50;99.90
30572;DHT22;17348;50.948;10.696;2022-10-16T01:42:40;15.50;99.90
30572;DHT22;17348;50.948;10.696;2022-10-16T01:45:44;15.50;99.90
30572;DHT22;17348;50.948;10.696;2022-10-16T01:48:48;15.50;99.90
30572;DHT22;17348;50.948;10.696;2022-10-16T01:51:55;15.50;99.90
30572;DHT22;17348;50.948;10.696;2022-10-16T01:55:01;15.50;99.90
30572;DHT22;17348;50.948;10.696;2022-10-16T01:58:08;15.60;99.90
30572;DHT22;17348;50.948;10.696;2022-10-16T02:01:12;15.50;99.90
30572;DHT22;17348;50.948;10.696;2022-10-16T02:04:18;15.60;99.90
30572;DHT22;17348;50.948;10.696;2022-10-16T02:07:22;15.50;99.90
30572;DHT22;17348;50.948;10.696;2022-10-16T02:10:25;15.50;99.90
30572;DHT22;17348;50.948;10.696;2022-10-16T02:13:35;15.40;99.90
30572;DHT22;17348;50.948;10.696;2022-10-16T02:16:41;15.50;99.90
30572;DHT22;17348;50.948;10.696;2022-10-16T02:19:45;15.40;99.90
30572;DHT22;17348;50.948;10.696;2022-10-16T02:22:48;15.40;99.90
30572;DHT22;17348;50.948;10.696;2022-10-16T02:25:53;15.40;99.90
30572;DHT22;17348;50.948;10.696;2022-10-16T02:29:00;15.40;99.90
30572;DHT22;17348;50.948;10.696;2022-10-16T02:32:07;15.40;99.90
30572;DHT22;17348;50.948;10.696;2022-10-16T02:35:12;15.40;99.90
30572;DHT22;17348;50.948;10.696;2022-10-16T02:38:16;15.40;99.90
30572;DHT22;17348;50.948;10.696;2022-10-16T02:41:20;15.40;99.90
30572;DHT22;17348;50.948;10.696;2022-10-16T02:44:24;15.40;99.90
30572;DHT22;17348;50.948;10.696;2022-10-16T02:47:26;15.40;99.90
30572;DHT22;17348;50.948;10.696;2022-10-16T02:50:29;15.30;99.90
30572;DHT22;17348;50.948;10.696;2022-10-16T02:53:31;15.40;99.90
30572;DHT22;17348;50.948;10.696;2022-10-16T02:56:33;15.40;99.90
30572;DHT22;17348;50.948;10.696;2022-10-16T02:59:36;15.40;99.90
30572;DHT22;17348;50.948;10.696;2022-10-16T03:02:39;15.40;99.90
30572;DHT22;17348;50.948;10.696;2022-10-16T03:05:43;15.40;99.90
30572;DHT22;17348;50.948;10.696;2022-10-16T03:08:46;15.40;99.90
30572;DHT22;17348;50.948;10.696;2022-10-16T03:11:48;15.40;99.90
30572;DHT22;17348;50.948;10.696;2022-10-16T03:14:52;15.40;99.90
30572;DHT22;17348;50.948;10.696;2022-10-16T03:17:56;15.40;99.90
30572;DHT22;17348;50.948;10.696;2022-10-16T03:20:59;15.50;99.90
30572;DHT22;17348;50.948;10.696;2022-10-16T03:24:01;15.50;99.90
30572;DHT22;17348;50.948;10.696;2022-10-16T03:27:03;15.50;99.90
30572;DHT22;17348;50.948;10.696;2022-10-16T03:30:08;15.50;99.90
30572;DHT22;17348;50.948;10.696;2022-10-16T03:33:11;15.50;99.90
30572;DHT22;17348;50.948;10.696;2022-10-16T03:36:13;15.50;99.90
30572;DHT22;17348;50.948;10.696;2022-10-16T03:39:15;15.50;99.90
30572;DHT22;17348;50.948;10.696;2022-10-16T03:42:17;15.60;99.90
30572;DHT22;17348;50.948;10.696;2022-10-16T03:45:21;15.60;99.90
30572;DHT22;17348;50.948;10.696;2022-10-16T03:48:23;15.60;99.90
30572;DHT22;17348;50.948;10.696;2022-10-16T03:51:25;15.50;99.90
30572;DHT22;17348;50.948;10.696;2022-10-16T03:54:28;15.60;99.90
30572;DHT22;17348;50.948;10.696;2022-10-16T03:57:30;15.60;99.90
30572;DHT22;17348;50.948;10.696;2022-10-16T04:00:34;15.60;99.90
30572;DHT22;17348;50.948;10.696;2022-10-16T04:03:36;15.60;99.90
30572;DHT22;17348;50.948;10.696;2022-10-16T04:06:38;15.60;99.90
30572;DHT22;17348;50.948;10.696;2022-10-16T04:09:40;15.70;99.90
30572;DHT22;17348;50.948;10.696;2022-10-16T04:12:43;15.70;99.90
30572;DHT22;17348;50.948;10.696;2022-10-16T04:15:46;15.70;99.90
30572;DHT22;17348;50.948;10.696;2022-10-16T04:18:48;15.70;99.90
30572;DHT22;17348;50.948;10.696;2022-10-16T04:21:51;15.70;99.90
30572;DHT22;17348;50.948;10.696;2022-10-16T04:24:53;15.80;99.90
30572;DHT22;17348;50.948;10.696;2022-10-16T04:27:55;15.70;99.90
30572;DHT22;17348;50.948;10.696;2022-10-16T04:30:59;15.80;99.90
30572;DHT22;17348;50.948;10.696;2022-10-16T04:34:01;15.70;99.90
30572;DHT22;17348;50.948;10.696;2022-10-16T04:37:04;15.70;99.90
30572;DHT22;17348;50.948;10.696;2022-10-16T04:40:07;15.70;99.90
30572;DHT22;17348;50.948;10.696;2022-10-16T04:43:09;15.80;99.90
30572;DHT22;17348;50.948;10.696;2022-10-16T04:46:13;15.70;99.90
30572;DHT22;17348;50.948;10.696;2022-10-16T04:49:15;15.80;99.90
30572;DHT22;17348;50.948;10.696;2022-10-16T04:52:17;15.90;99.90
30572;DHT22;17348;50.948;10.696;2022-10-16T04:55:19;15.90;99.90
30572;DHT22;17348;50.948;10.696;2022-10-16T04:58:22;15.90;99.90
30572;DHT22;17348;50.948;10.696;2022-10-16T05:01:25;15.90;99.90
30572;DHT22;17348;50.948;10.696;2022-10-16T05:04:28;15.90;99.90
30572;DHT22;17348;50.948;10.696;2022-10-16T05:07:30;16.00;99.90
30572;DHT22;17348;50.948;10.696;2022-10-16T05:10:32;16.00;99.90
30572;DHT22;17348;50.948;10.696;2022-10-16T05:13:34;16.00;99.90
30572;DHT22;17348;50.948;10.696;2022-10-16T05:16:38;16.10;99.90
30572;DHT22;17348;50.948;10.696;2022-10-16T05:19:40;16.10;99.90
30572;DHT22;17348;50.948;10.696;2022-10-16T05:22:42;16.10;99.90
30572;DHT22;17348;50.948;10.696;2022-10-16T05:25:52;16.20;99.90
30572;DHT22;17348;50.948;10.696;2022-10-16T05:28:55;16.20;99.90
30572;DHT22;17348;50.948;10.696;2022-10-16T05:31:58;16.20;99.90
30572;DHT22;17348;50.948;10.696;2022-10-16T05:35:01;16.20;99.90
30572;DHT22;17348;50.948;10.696;2022-10-16T05:38:03;16.20;99.90
30572;DHT22;17348;50.948;10.696;2022-10-16T05:41:05;16.10;99.90
30572;DHT22;17348;50.948;10.696;2022-10-16T05:44:07;16.20;99.90
30572;DHT22;17348;50.948;10.696;2022-10-16T05:47:12;16.20;99.90
30572;DHT22;17348;50.948;10.696;2022-10-16T05:50:15;16.20;99.90
30572;DHT22;17348;50.948;10.696;2022-10-16T05:53:17;16.10;99.90
30572;DHT22;17348;50.948;10.696;2022-10-16T05:56:26;16.10;99.90
30572;DHT22;17348;50.948;10.696;2022-10-16T05:59:28;16.10;99.90
30572;DHT22;17348;50.948;10.696;2022-10-16T06:02:32;16.00;99.90
30572;DHT22;17348;50.948;10.696;2022-10-16T06:05:34;15.90;99.90
30572;DHT22;17348;50.948;10.696;2022-10-16T06:08:36;15.90;99.90
30572;DHT22;17348;50.948;10.696;2022-10-16T06:11:39;15.90;99.90
30572;DHT22;17348;50.948;10.696;2022-10-16T06:14:41;15.90;99.90
30572;DHT22;17348;50.948;10.696;2022-10-16T06:17:45;15.80;99.90
30572;DHT22;17348;50.948;10.696;2022-10-16T06:20:47;15.80;99.90
30572;DHT22;17348;50.948;10.696;2022-10-16T06:23:49;15.80;99.90
30572;DHT22;17348;50.948;10.696;2022-10-16T06:26:51;15.80;99.90
30572;DHT22;17348;50.948;10.696;2022-10-16T06:29:53;15.80;99.90
30572;DHT22;17348;50.948;10.696;2022-10-16T06:32:57;15.80;99.90
30572;DHT22;17348;50.948;10.696;2022-10-16T06:36:02;15.80;99.90
30572;DHT22;17348;50.948;10.696;2022-10-16T06:39:05;15.90;99.90
30572;DHT22;17348;50.948;10.696;2022-10-16T06:42:08;15.90;99.90
30572;DHT22;17348;50.948;10.696;2022-10-16T06:45:10;15.90;99.90
30572;DHT22;17348;50.948;10.696;2022-10-16T06:48:14;15.90;99.90
30572;DHT22;17348;50.948;10.696;2022-10-16T06:51:18;15.90;99.90
30572;DHT22;17348;50.948;10.696;2022-10-16T06:54:20;15.90;99.90
30572;DHT22;17348;50.948;10.696;2022-10-16T06:57:23;15.90;99.90
30572;DHT22;17348;50.948;10.696;2022-10-16T07:00:25;16.00;99.90
30572;DHT22;17348;50.948;10.696;2022-10-16T07:03:28;16.00;99.90
30572;DHT22;17348;50.948;10.696;2022-10-16T07:06:32;16.10;99.90
30572;DHT22;17348;50.948;10.696;2022-10-16T07:09:35;16.10;99.90
30572;DHT22;17348;50.948;10.696;2022-10-16T07:12:37;16.30;99.90
30572;DHT22;17348;50.948;10.696;2022-10-16T07:15:39;16.30;99.90
30572;DHT22;17348;50.948;10.696;2022-10-16T07:18:44;16.40;99.90
30572;DHT22;17348;50.948;10.696;2022-10-16T07:21:47;16.50;99.90
30572;DHT22;17348;50.948;10.696;2022-10-16T07:24:49;16.60;99.90
30572;DHT22;17348;50.948;10.696;2022-10-16T07:27:52;16.60;99.90
30572;DHT22;17348;50.948;10.696;2022-10-16T07:31:00;16.70;99.90
30572;DHT22;17348;50.948;10.696;2022-10-16T07:34:04;16.70;99.90
30572;DHT22;17348;50.948;10.696;2022-10-16T07:37:06;16.70;99.90
30572;DHT22;17348;50.948;10.696;2022-10-16T07:40:09;16.80;99.90
30572;DHT22;17348;50.948;10.696;2022-10-16T07:43:12;16.90;99.90
30572;DHT22;17348;50.948;10.696;2022-10-16T07:46:15;17.00;99.90
30572;DHT22;17348;50.948;10.696;2022-10-16T07:49:18;17.10;99.90
30572;DHT22;17348;50.948;10.696;2022-10-16T07:52:21;17.20;99.90
30572;DHT22;17348;50.948;10.696;2022-10-16T07:55:23;17.30;99.90
30572;DHT22;17348;50.948;10.696;2022-10-16T07:58:26;17.40;99.90
30572;DHT22;17348;50.948;10.696;2022-10-16T08:01:28;17.40;99.90
30572;DHT22;17348;50.948;10.696;2022-10-16T08:04:32;17.40;99.90
30572;DHT22;17348;50.948;10.696;2022-10-16T08:07:34;17.50;99.90
30572;DHT22;17348;50.948;10.696;2022-10-16T08:10:36;17.50;99.90
30572;DHT22;17348;50.948;10.696;2022-10-16T08:13:39;17.50;99.90
30572;DHT22;17348;50.948;10.696;2022-10-16T08:16:41;17.50;99.90
30572;DHT22;17348;50.948;10.696;2022-10-16T08:19:46;17.50;99.90
30572;DHT22;17348;50.948;10.696;2022-10-16T08:22:48;17.50;99.90
30572;DHT22;17348;50.948;10.696;2022-10-16T08:25:50;17.50;99.90
30572;DHT22;17348;50.948;10.696;2022-10-16T08:28:53;17.60;99.90
30572;DHT22;17348;50.948;10.696;2022-10-16T08:31:55;17.70;99.90
30572;DHT22;17348;50.948;10.696;2022-10-16T08:34:59;17.80;99.90
30572;DHT22;17348;50.948;10.696;2022-10-16T08:38:03;17.90;99.90
30572;DHT22;17348;50.948;10.696;2022-10-16T08:41:27;18.10;99.90
30572;DHT22;17348;50.948;10.696;2022-10-16T08:44:47;18.20;99.90
30572;DHT22;17348;50.948;10.696;2022-10-16T08:48:00;18.30;99.90
30572;DHT22;17348;50.948;10.696;2022-10-16T08:51:07;18.40;99.90
30572;DHT22;17348;50.948;10.696;2022-10-16T08:54:21;18.30;99.90
30572;DHT22;17348;50.948;10.696;2022-10-16T08:57:25;18.30;99.90
30572;DHT22;17348;50.948;10.696;2022-10-16T09:00:28;18.30;99.90
30572;DHT22;17348;50.948;10.696;2022-10-16T09:03:41;18.30;99.90
30572;DHT22;17348;50.948;10.696;2022-10-16T09:06:53;18.30;99.90
30572;DHT22;17348;50.948;10.696;2022-10-16T09:10:11;18.30;99.90
30572;DHT22;17348;50.948;10.696;2022-10-16T09:13:21;18.40;99.90
30572;DHT22;17348;50.948;10.696;2022-10-16T09:16:29;18.50;99.90
30572;DHT22;17348;50.948;10.696;2022-10-16T09:19:36;18.40;99.90
30572;DHT22;17348;50.948;10.696;2022-10-16T09:22:41;18.50;99.90
30572;DHT22;17348;50.948;10.696;2022-10-16T09:25:46;18.50;99.90
30572;DHT22;17348;50.948;10.696;2022-10-16T09:28:52;18.50;99.90
30572;DHT22;17348;50.948;10.696;2022-10-16T09:31:55;18.60;99.90
30572;DHT22;17348;50.948;10.696;2022-10-16T09:34:59;18.50;99.90
30572;DHT22;17348;50.948;10.696;2022-10-16T09:38:03;18.60;99.90
30572;DHT22;17348;50.948;10.696;2022-10-16T09:41:15;18.60;99.90
30572;DHT22;17348;50.948;10.696;2022-10-16T09:44:21;18.60;99.90
30572;DHT22;17348;50.948;10.696;2022-10-16T09:47:27;18.60;99.90
30572;DHT22;17348;50.948;10.696;2022-10-16T09:50:30;18.60;99.90
30572;DHT22;17348;50.948;10.696;2022-10-16T09:53:42;18.60;99.90
30572;DHT22;17348;50.948;10.696;2022-10-16T09:56:45;18.70;99.90
30572;DHT22;17348;50.948;10.696;2022-10-16T09:59:53;18.80;99.90
30572;DHT22;17348;50.948;10.696;2022-10-16T10:02:56;19.00;99.90
30572;DHT22;17348;50.948;10.696;2022-10-16T10:05:59;19.00;99.90
30572;DHT22;17348;50.948;10.696;2022-10-16T10:09:06;19.00;99.90
30572;DHT22;17348;50.948;10.696;2022-10-16T10:12:17;19.10;99.90
30572;DHT22;17348;50.948;10.696;2022-10-16T10:15:20;19.10;99.90
30572;DHT22;17348;50.948;10.696;2022-10-16T10:18:24;19.10;99.90
30572;DHT22;17348;50.948;10.696;2022-10-16T10:21:27;19.00;99.90
30572;DHT22;17348;50.948;10.696;2022-10-16T10:24:30;18.90;99.90
30572;DHT22;17348;50.948;10.696;2022-10-16T10:27:39;18.80;99.90
30572;DHT22;17348;50.948;10.696;2022-10-16T10:30:48;18.70;99.90
30572;DHT22;17348;50.948;10.696;2022-10-16T10:33:56;18.60;99.90
30572;DHT22;17348;50.948;10.696;2022-10-16T10:37:04;18.50;99.90
30572;DHT22;17348;50.948;10.696;2022-10-16T10:40:20;18.40;99.90
30572;DHT22;17348;50.948;10.696;2022-10-16T10:43:37;18.40;99.90
30572;DHT22;17348;50.948;10.696;2022-10-16T10:46:43;18.40;99.90
30572;DHT22;17348;50.948;10.696;2022-10-16T10:49:55;18.50;99.90
30572;DHT22;17348;50.948;10.696;2022-10-16T10:53:05;18.50;99.90
30572;DHT22;17348;50.948;10.696;2022-10-16T10:56:25;18.60;99.90
30572;DHT22;17348;50.948;10.696;2022-10-16T10:59:41;18.70;99.90
30572;DHT22;17348;50.948;10.696;2022-10-16T11:02:56;18.80;99.90
30572;DHT22;17348;50.948;10.696;2022-10-16T11:06:05;19.00;99.90
30572;DHT22;17348;50.948;10.696;2022-10-16T11:09:12;19.10;99.90
30572;DHT22;17348;50.948;10.696;2022-10-16T11:12:20;19.30;99.90
30572;DHT22;17348;50.948;10.696;2022-10-16T11:15:27;19.40;99.90
30572;DHT22;17348;50.948;10.696;2022-10-16T11:18:37;19.30;99.90
30572;DHT22;17348;50.948;10.696;2022-10-16T11:21:45;19.30;99.90
30572;DHT22;17348;50.948;10.696;2022-10-16T11:24:55;19.30;99.90
30572;DHT22;17348;50.948;10.696;2022-10-16T11:28:08;19.30;99.90
30572;DHT22;17348;50.948;10.696;2022-10-16T11:31:17;19.30;99.90
30572;DHT22;17348;50.948;10.696;2022-10-16T11:34:24;19.40;99.90
30572;DHT22;17348;50.948;10.696;2022-10-16T11:37:30;19.40;99.90
30572;DHT22;17348;50.948;10.696;2022-10-16T11:40:38;19.50;99.90
30572;DHT22;17348;50.948;10.696;2022-10-16T11:43:51;19.50;99.90
30572;DHT22;17348;50.948;10.696;2022-10-16T11:47:04;19.50;99.90
30572;DHT22;17348;50.948;10.696;2022-10-16T11:50:17;19.70;99.90
30572;DHT22;17348;50.948;10.696;2022-10-16T11:53:37;19.80;99.90
30572;DHT22;17348;50.948;10.696;2022-10-16T11:56:43;19.80;99.90
30572;DHT22;17348;50.948;10.696;2022-10-16T11:59:52;19.80;99.90
30572;DHT22;17348;50.948;10.696;2022-10-16T12:03:01;19.90;99.90
30572;DHT22;17348;50.948;10.696;2022-10-16T12:06:22;20.10;99.90
30572;DHT22;17348;50.948;10.696;2022-10-16T12:09:29;20.20;99.90
30572;DHT22;17348;50.948;10.696;2022-10-16T12:12:39;20.20;99.90
30572;DHT22;17348;50.948;10.696;2022-10-16T12:15:43;20.10;99.90
30572;DHT22;17348;50.948;10.696;2022-10-16T12:18:46;20.10;99.90
30572;DHT22;17348;50.948;10.696;2022-10-16T12:21:50;20.20;99.90
30572;DHT22;17348;50.948;10.696;2022-10-16T12:24:54;20.20;99.90
30572;DHT22;17348;50.948;10.696;2022-10-16T12:27:59;20.40;99.90
30572;DHT22;17348;50.948;10.696;2022-10-16T12:31:05;20.50;99.90
30572;DHT22;17348;50.948;10.696;2022-10-16T12:34:21;20.70;99.90
30572;DHT22;17348;50.948;10.696;2022-10-16T12:37:26;20.80;99.90
30572;DHT22;17348;50.948;10.696;2022-10-16T12:40:32;20.80;99.90
30572;DHT22;17348;50.948;10.696;2022-10-16T12:43:38;20.70;99.90
30572;DHT22;17348;50.948;10.696;2022-10-16T12:46:41;20.90;99.90
30572;DHT22;17348;50.948;10.696;2022-10-16T12:49:53;21.00;99.90
30572;DHT22;17348;50.948;10.696;2022-10-16T12:52:56;21.20;99.90
30572;DHT22;17348;50.948;10.696;2022-10-16T12:56:08;21.20;99.90
30572;DHT22;17348;50.948;10.696;2022-10-16T12:59:19;21.20;99.90
30572;DHT22;17348;50.948;10.696;2022-10-16T13:02:48;21.10;99.90
30572;DHT22;17348;50.948;10.696;2022-10-16T13:06:04;21.00;99.90
30572;DHT22;17348;50.948;10.696;2022-10-16T13:09:24;20.80;99.90
30572;DHT22;17348;50.948;10.696;2022-10-16T13:12:49;20.80;99.90
30572;DHT22;17348;50.948;10.696;2022-10-16T13:16:08;20.70;99.90
30572;DHT22;17348;50.948;10.696;2022-10-16T13:19:20;20.60;99.90
30572;DHT22;17348;50.948;10.696;2022-10-16T13:22:30;20.50;99.90
30572;DHT22;17348;50.948;10.696;2022-10-16T13:25:45;20.50;99.90
30572;DHT22;17348;50.948;10.696;2022-10-16T13:28:51;20.50;99.90
30572;DHT22;17348;50.948;10.696;2022-10-16T13:31:53;20.60;99.90
30572;DHT22;17348;50.948;10.696;2022-10-16T13:34:57;20.60;99.90
30572;DHT22;17348;50.948;10.696;2022-10-16T13:38:08;20.60;99.90
30572;DHT22;17348;50.948;10.696;2022-10-16T13:41:15;20.50;99.90
30572;DHT22;17348;50.948;10.696;2022-10-16T13:44:19;20.60;99.90
30572;DHT22;17348;50.948;10.696;2022-10-16T13:47:23;20.60;99.90
30572;DHT22;17348;50.948;10.696;2022-10-16T13:50:27;20.70;99.90
30572;DHT22;17348;50.948;10.696;2022-10-16T13:53:34;20.70;99.90
30572;DHT22;17348;50.948;10.696;2022-10-16T13:56:38;20.50;99.90
30572;DHT22;17348;50.948;10.696;2022-10-16T13:59:40;20.40;99.90
30572;DHT22;17348;50.948;10.696;2022-10-16T14:02:43;20.30;99.90
30572;DHT22;17348;50.948;10.696;2022-10-16T14:05:49;20.20;99.90
30572;DHT22;17348;50.948;10.696;2022-10-16T14:08:54;20.20;99.90
30572;DHT22;17348;50.948;10.696;2022-10-16T14:11:58;20.10;99.90
30572;DHT22;17348;50.948;10.696;2022-10-16T14:15:02;20.20;99.90
30572;DHT22;17348;50.948;10.696;2022-10-16T14:18:04;20.20;99.90
30572;DHT22;17348;50.948;10.696;2022-10-16T14:21:13;20.30;99.90
30572;DHT22;17348;50.948;10.696;2022-10-16T14:24:27;20.40;99.90
30572;DHT22;17348;50.948;10.696;2022-10-16T14:27:31;20.30;99.90
30572;DHT22;17348;50.948;10.696;2022-10-16T14:30:35;20.30;99.90
30572;DHT22;17348;50.948;10.696;2022-10-16T14:33:38;20.20;99.90
30572;DHT22;17348;50.948;10.696;2022-10-16T14:36:41;20.10;99.90
30572;DHT22;17348;50.948;10.696;2022-10-16T14:39:49;20.00;99.90
30572;DHT22;17348;50.948;10.696;2022-10-16T14:42:52;19.90;99.90
30572;DHT22;17348;50.948;10.696;2022-10-16T14:45:56;19.80;99.90
30572;DHT22;17348;50.948;10.696;2022-10-16T14:49:02;19.80;99.90
30572;DHT22;17348;50.948;10.696;2022-10-16T14:52:10;19.70;99.90
30572;DHT22;17348;50.948;10.696;2022-10-16T14:55:13;19.60;99.90
30572;DHT22;17348;50.948;10.696;2022-10-16T14:58:17;19.50;99.90
30572;DHT22;17348;50.948;10.696;2022-10-16T15:01:19;19.40;99.90
30572;DHT22;17348;50.948;10.696;2022-10-16T15:04:22;19.40;99.90
30572;DHT22;17348;50.948;10.696;2022-10-16T15:07:25;19.30;99.90
30572;DHT22;17348;50.948;10.696;2022-10-16T15:10:28;19.40;99.90
30572;DHT22;17348;50.948;10.696;2022-10-16T15:13:32;19.40;99.90
30572;DHT22;17348;50.948;10.696;2022-10-16T15:16:35;19.60;99.90
30572;DHT22;17348;50.948;10.696;2022-10-16T15:19:37;19.70;99.90
30572;DHT22;17348;50.948;10.696;2022-10-16T15:22:41;19.70;99.90
30572;DHT22;17348;50.948;10.696;2022-10-16T15:25:44;19.80;99.90
30572;DHT22;17348;50.948;10.696;2022-10-16T15:28:47;19.80;99.90
30572;DHT22;17348;50.948;10.696;2022-10-16T15:31:49;19.80;99.90
30572;DHT22;17348;50.948;10.696;2022-10-16T15:34:52;19.80;99.90
30572;DHT22;17348;50.948;10.696;2022-10-16T15:37:57;19.80;99.90
30572;DHT22;17348;50.948;10.696;2022-10-16T15:40:59;19.80;99.90
30572;DHT22;17348;50.948;10.696;2022-10-16T15:44:01;19.80;99.90
30572;DHT22;17348;50.948;10.696;2022-10-16T15:47:03;19.80;99.90
30572;DHT22;17348;50.948;10.696;2022-10-16T15:50:08;19.70;99.90
30572;DHT22;17348;50.948;10.696;2022-10-16T15:53:12;19.70;99.90
30572;DHT22;17348;50.948;10.696;2022-10-16T15:56:14;19.60;99.90
30572;DHT22;17348;50.948;10.696;2022-10-16T15:59:16;19.50;99.90
30572;DHT22;17348;50.948;10.696;2022-10-16T16:02:19;19.40;99.90
30572;DHT22;17348;50.948;10.696;2022-10-16T16:05:21;19.30;99.90
30572;DHT22;17348;50.948;10.696;2022-10-16T16:08:25;19.10;99.90
30572;DHT22;17348;50.948;10.696;2022-10-16T16:11:28;19.10;99.90
30572;DHT22;17348;50.948;10.696;2022-10-16T16:14:32;18.90;99.90
30572;DHT22;17348;50.948;10.696;2022-10-16T16:17:35;18.80;99.90
30572;DHT22;17348;50.948;10.696;2022-10-16T16:20:37;18.70;99.90
30572;DHT22;17348;50.948;10.696;2022-10-16T16:23:41;18.60;99.90
30572;DHT22;17348;50.948;10.696;2022-10-16T16:26:43;18.50;99.90
30572;DHT22;17348;50.948;10.696;2022-10-16T16:29:45;18.40;99.90
30572;DHT22;17348;50.948;10.696;2022-10-16T16:32:48;18.40;99.90
30572;DHT22;17348;50.948;10.696;2022-10-16T16:35:50;18.20;99.90
30572;DHT22;17348;50.948;10.696;2022-10-16T16:38:54;18.20;99.90
30572;DHT22;17348;50.948;10.696;2022-10-16T16:41:56;18.10;99.90
30572;DHT22;17348;50.948;10.696;2022-10-16T16:44:59;18.10;99.90
30572;DHT22;17348;50.948;10.696;2022-10-16T16:48:01;18.00;99.90
30572;DHT22;17348;50.948;10.696;2022-10-16T16:51:04;18.00;99.90
30572;DHT22;17348;50.948;10.696;2022-10-16T16:54:10;17.90;99.90
30572;DHT22;17348;50.948;10.696;2022-10-16T16:57:13;17.80;99.90
30572;DHT22;17348;50.948;10.696;2022-10-16T17:00:15;17.80;99.90
30572;DHT22;17348;50.948;10.696;2022-10-16T17:03:18;17.70;99.90
30572;DHT22;17348;50.948;10.696;2022-10-16T17:06:22;17.70;99.90
30572;DHT22;17348;50.948;10.696;2022-10-16T17:09:26;17.70;99.90
30572;DHT22;17348;50.948;10.696;2022-10-16T17:12:29;17.60;99.90
30572;DHT22;17348;50.948;10.696;2022-10-16T17:15:31;17.60;99.90
30572;DHT22;17348;50.948;10.696;2022-10-16T17:18:34;17.60;99.90
30572;DHT22;17348;50.948;10.696;2022-10-16T17:21:36;17.50;99.90
30572;DHT22;17348;50.948;10.696;2022-10-16T17:24:40;17.50;99.90
30572;DHT22;17348;50.948;10.696;2022-10-16T17:27:42;17.40;99.90
30572;DHT22;17348;50.948;10.696;2022-10-16T17:30:45;17.40;99.90
30572;DHT22;17348;50.948;10.696;2022-10-16T17:33:47;17.40;99.90
30572;DHT22;17348;50.948;10.696;2022-10-16T17:36:51;17.30;99.90
30572;DHT22;17348;50.948;10.696;2022-10-16T17:39:55;17.30;99.90
30572;DHT22;17348;50.948;10.696;2022-10-16T17:42:57;17.20;99.90
30572;DHT22;17348;50.948;10.696;2022-10-16T17:46:01;17.10;99.90
30572;DHT22;17348;50.948;10.696;2022-10-16T17:49:03;17.10;99.90
30572;DHT22;17348;50.948;10.696;2022-10-16T17:52:06;17.00;99.90
30572;DHT22;17348;50.948;10.696;2022-10-16T17:55:10;17.00;99.90
30572;DHT22;17348;50.948;10.696;2022-10-16T17:58:12;17.00;99.90
30572;DHT22;17348;50.948;10.696;2022-10-16T18:01:16;17.00;99.90
30572;DHT22;17348;50.948;10.696;2022-10-16T18:04:18;17.00;99.90
30572;DHT22;17348;50.948;10.696;2022-10-16T18:07:21;17.10;99.90
30572;DHT22;17348;50.948;10.696;2022-10-16T18:10:25;17.10;99.90
30572;DHT22;17348;50.948;10.696;2022-10-16T18:13:27;17.10;99.90
30572;DHT22;17348;50.948;10.696;2022-10-16T18:16:30;17.10;99.90
30572;DHT22;17348;50.948;10.696;2022-10-16T18:19:32;17.00;99.90
30572;DHT22;17348;50.948;10.696;2022-10-16T18:22:35;17.00;99.90
30572;DHT22;17348;50.948;10.696;2022-10-16T18:25:39;17.00;99.90
30572;DHT22;17348;50.948;10.696;2022-10-16T18:28:42;16.90;99.90
30572;DHT22;17348;50.948;10.696;2022-10-16T18:31:44;16.90;99.90
30572;DHT22;17348;50.948;10.696;2022-10-16T18:34:46;16.80;99.90
30572;DHT22;17348;50.948;10.696;2022-10-16T18:37:51;16.80;99.90
30572;DHT22;17348;50.948;10.696;2022-10-16T18:40:57;16.70;99.90
30572;DHT22;17348;50.948;10.696;2022-10-16T18:44:01;16.70;99.90
30572;DHT22;17348;50.948;10.696;2022-10-16T18:47:04;16.70;99.90
30572;DHT22;17348;50.948;10.696;2022-10-16T18:50:06;16.70;99.90
30572;DHT22;17348;50.948;10.696;2022-10-16T18:53:09;16.60;99.90
30572;DHT22;17348;50.948;10.696;2022-10-16T18:56:13;16.60;99.90
30572;DHT22;17348;50.948;10.696;2022-10-16T18:59:16;16.60;99.90
30572;DHT22;17348;50.948;10.696;2022-10-16T19:02:18;16.50;99.90
30572;DHT22;17348;50.948;10.696;2022-10-16T19:05:20;16.50;99.90
30572;DHT22;17348;50.948;10.696;2022-10-16T19:08:24;16.40;99.90